createdAt,value
2022-08-25T00:12:05.297Z,98831.31
2022-08-25T00:14:40.677Z,98829.44
2022-08-25T00:17:14.378Z,98835.03
2022-08-25T00:19:48.180Z,98835.22
2022-08-25T00:22:22.278Z,98836.22
2022-08-25T00:38:59.617Z,98830.13
2022-08-25T00:41:42.258Z,98829.25
2022-08-25T00:44:16.797Z,98820.44
2022-08-25T00:46:56.279Z,98824.16
2022-08-25T00:49:36.485Z,98819.59
2022-08-25T00:52:22.283Z,98823.31
2022-08-25T01:05:36.310Z,98831.44
2022-08-25T01:08:11.724Z,98828.22
2022-08-25T01:10:58.282Z,98818.38
2022-08-25T01:13:39.025Z,98820.06
2022-08-25T01:16:21.426Z,98812.94
2022-08-25T01:18:57.943Z,98820.25
2022-08-25T01:31:56.241Z,98816.31
2022-08-25T01:34:41.283Z,98812.91
2022-08-25T01:37:16.343Z,98810.53
2022-08-25T01:39:50.335Z,98814.25
2022-08-25T01:42:37.522Z,98811.72
2022-08-25T01:59:00.306Z,98803.00
2022-08-25T02:01:33.933Z,98804.19
2022-08-25T02:04:09.142Z,98801.47
2022-08-25T02:06:43.982Z,98806.72
2022-08-25T02:09:22.284Z,98806.06
2022-08-25T02:12:01.102Z,98810.78
2022-08-25T02:24:15.243Z,98805.00
2022-08-25T02:26:55.301Z,98803.81
2022-08-25T02:29:28.839Z,98797.72
2022-08-25T02:32:04.269Z,98802.28
2022-08-25T02:34:37.745Z,98800.91
2022-08-25T02:37:11.284Z,98797.84
2022-08-25T02:50:25.324Z,98787.34
2022-08-25T02:52:58.804Z,98788.34
2022-08-25T02:55:34.549Z,98786.81
2022-08-25T02:58:09.108Z,98788.66
2022-08-25T03:00:43.341Z,98780.53
2022-08-25T03:03:19.105Z,98784.28
2022-08-25T03:19:35.986Z,98784.94
2022-08-25T03:22:09.783Z,98782.34
2022-08-25T03:24:43.283Z,98785.22
2022-08-25T03:27:34.324Z,98781.00
2022-08-25T03:30:17.224Z,98782.16
2022-08-25T03:32:50.964Z,98779.44
2022-08-25T03:45:41.360Z,98774.84
2022-08-25T03:48:23.283Z,98774.84
2022-08-25T03:50:56.846Z,98765.19
2022-08-25T03:53:30.305Z,98775.00
2022-08-25T03:56:04.245Z,98774.31
2022-08-25T03:58:38.284Z,98766.66
2022-08-25T04:11:53.129Z,98770.84
2022-08-25T04:14:27.806Z,98769.84
2022-08-25T04:17:01.396Z,98769.03
2022-08-25T04:19:35.864Z,98767.31
2022-08-25T04:22:10.786Z,98769.84
2022-08-25T04:38:26.244Z,98772.91
2022-08-25T04:41:09.266Z,98780.16
2022-08-25T04:43:44.405Z,98779.31
2022-08-25T04:46:22.406Z,98773.91
2022-08-25T04:48:58.926Z,98779.16
2022-08-25T04:51:43.243Z,98771.91
2022-08-25T04:54:19.145Z,98772.56
2022-08-25T05:04:08.323Z,98768.50
2022-08-25T05:06:48.943Z,98772.19
2022-08-25T05:09:25.373Z,98778.44
2022-08-25T05:11:58.992Z,98770.19
2022-08-25T05:14:33.434Z,98764.78
2022-08-25T05:17:08.052Z,98769.84
2022-08-25T05:19:42.291Z,98772.56
2022-08-25T05:33:01.271Z,98781.22
2022-08-25T05:35:34.891Z,98781.06
2022-08-25T05:40:42.713Z,98790.88
2022-08-25T05:43:10.442Z,98794.44
2022-08-25T05:59:32.292Z,98790.75
2022-08-25T06:02:06.113Z,98789.94
2022-08-25T06:04:41.384Z,98786.22
2022-08-25T06:07:16.212Z,98782.47
2022-08-25T06:09:58.334Z,98779.75
2022-08-25T06:12:34.073Z,98780.47
2022-08-25T06:25:33.251Z,98780.69
2022-08-25T06:28:14.313Z,98784.22
2022-08-25T06:30:48.073Z,98785.75
2022-08-25T06:33:22.232Z,98781.50
2022-08-25T06:35:56.912Z,98776.09
2022-08-25T06:38:31.252Z,98772.56
2022-08-25T06:51:43.291Z,98768.97
2022-08-25T06:54:16.859Z,98769.84
2022-08-25T06:56:50.292Z,98774.09
2022-08-25T06:59:24.032Z,98772.03
2022-08-25T07:01:58.380Z,98775.44
2022-08-25T07:04:34.333Z,98778.84
2022-08-25T07:17:55.253Z,98783.28
2022-08-25T07:20:37.174Z,98777.56
2022-08-25T07:23:10.833Z,98787.75
2022-08-25T07:25:44.274Z,98787.41
2022-08-25T07:28:21.092Z,98783.34
2022-08-25T07:30:59.060Z,98790.97
2022-08-25T07:33:35.053Z,98788.34
2022-08-25T07:46:31.330Z,98781.94
2022-08-25T07:52:10.611Z,98782.81
2022-08-25T07:54:45.272Z,98781.63
2022-08-25T07:57:21.315Z,98781.31
2022-08-25T08:12:52.471Z,98775.56
2022-08-25T08:15:25.973Z,98770.28
2022-08-25T08:18:11.331Z,98771.31
2022-08-25T08:20:47.828Z,98763.22
2022-08-25T08:23:23.439Z,98770.50
2022-08-25T08:40:00.323Z,98752.28
2022-08-25T08:43:18.090Z,98747.81
2022-08-25T08:45:53.830Z,98754.25
2022-08-25T08:48:51.313Z,98752.41
2022-08-25T08:51:33.454Z,98745.25
2022-08-25T08:54:23.116Z,98752.19
2022-08-25T09:04:56.251Z,98748.03
2022-08-25T09:07:47.202Z,98746.00
2022-08-25T09:10:24.454Z,98739.34
2022-08-25T09:13:17.312Z,98739.84
2022-08-25T09:16:08.079Z,98741.50
2022-08-25T09:19:04.311Z,98747.63
2022-08-25T09:32:24.057Z,98738.34
2022-08-25T09:35:01.539Z,98733.59
2022-08-25T09:37:43.331Z,98727.78
2022-08-25T09:40:22.672Z,98720.28
2022-08-25T09:43:11.334Z,98722.66
2022-08-25T09:59:57.667Z,98710.91
2022-08-25T10:02:38.292Z,98702.66
2022-08-25T10:05:23.718Z,98692.72
2022-08-25T10:08:07.311Z,98686.00
2022-08-25T10:10:45.912Z,98685.53
2022-08-25T10:13:28.311Z,98680.31
2022-08-25T10:27:05.052Z,98671.03
2022-08-25T10:30:07.012Z,98663.50
2022-08-25T10:33:22.312Z,98660.41
2022-08-25T10:36:04.330Z,98661.03
2022-08-25T10:38:50.852Z,98660.69
2022-08-25T10:52:21.331Z,98653.97
2022-08-25T10:55:07.831Z,98651.91
2022-08-25T10:58:00.271Z,98650.50
2022-08-25T11:00:48.110Z,98644.88
2022-08-25T11:03:49.291Z,98644.09
2022-08-25T11:06:39.071Z,98638.53
2022-08-25T11:09:29.271Z,98634.84
2022-08-25T11:19:27.251Z,98623.94
2022-08-25T11:22:19.519Z,98619.03
2022-08-25T11:25:11.651Z,98620.78
2022-08-25T11:28:08.194Z,98608.69
2022-08-25T11:30:42.685Z,98607.88
2022-08-25T11:33:20.330Z,98609.59
2022-08-25T11:46:59.351Z,98609.53
2022-08-25T11:49:52.573Z,98606.31
2022-08-25T11:52:54.333Z,98609.25
2022-08-25T11:55:48.534Z,98611.34
2022-08-25T11:58:52.313Z,98612.38
2022-08-25T12:12:37.327Z,98597.56
2022-08-25T12:15:21.571Z,98598.22
2022-08-25T12:18:18.879Z,98595.47
2022-08-25T12:21:29.171Z,98581.19
2022-08-25T12:24:22.271Z,98580.38
2022-08-25T12:27:01.310Z,98573.50
2022-08-25T12:29:56.151Z,98572.84
2022-08-25T12:40:12.348Z,98572.03
2022-08-25T12:42:53.974Z,98571.22
2022-08-25T12:45:41.967Z,98564.94
2022-08-25T12:49:02.323Z,98570.88
2022-08-25T12:51:54.213Z,98579.09
2022-08-25T13:08:21.359Z,98576.66
2022-08-25T13:11:03.811Z,98579.41
2022-08-25T13:13:58.312Z,98577.09
2022-08-25T13:16:32.133Z,98576.25
2022-08-25T13:19:12.311Z,98565.31
2022-08-25T13:32:35.603Z,98563.50
2022-08-25T13:35:20.174Z,98560.09
2022-08-25T13:38:01.369Z,98552.94
2022-08-25T13:40:36.577Z,98553.34
2022-08-25T13:43:18.554Z,98551.69
2022-08-25T13:46:04.601Z,98542.41
2022-08-25T13:48:49.445Z,98546.22
2022-08-25T13:59:07.292Z,98543.88
2022-08-25T14:01:54.499Z,98542.41
2022-08-25T14:04:51.764Z,98547.47
2022-08-25T14:07:36.351Z,98541.78
2022-08-25T14:10:35.815Z,98542.19
2022-08-25T14:13:36.379Z,98541.13
2022-08-25T14:26:57.372Z,98523.41
2022-08-25T14:29:31.153Z,98528.69
2022-08-25T14:32:17.351Z,98532.28
2022-08-25T14:34:50.940Z,98526.78
2022-08-25T14:37:28.171Z,98520.91
2022-08-25T14:54:10.291Z,98524.03
2022-08-25T14:56:55.311Z,98517.06
2022-08-25T14:59:28.791Z,98520.44
2022-08-25T15:02:03.371Z,98522.53
2022-08-25T15:04:38.718Z,98515.19
2022-08-25T15:07:24.511Z,98507.81
2022-08-25T15:10:00.881Z,98507.38
2022-08-25T15:19:44.362Z,98496.00
2022-08-25T15:22:19.781Z,98485.50
2022-08-25T15:24:53.302Z,98484.88
2022-08-25T15:27:31.025Z,98484.22
2022-08-25T15:30:15.521Z,98492.44
2022-08-25T15:32:49.940Z,98486.38
2022-08-25T15:46:12.264Z,98467.63
2022-08-25T15:48:53.301Z,98469.94
2022-08-25T15:51:28.141Z,98469.50
2022-08-25T15:54:03.341Z,98472.88
2022-08-25T15:56:37.002Z,98474.09
2022-08-25T15:59:12.300Z,98470.53
2022-08-25T16:12:55.301Z,98460.63
2022-08-25T16:15:31.525Z,98446.13
2022-08-25T16:18:06.321Z,98448.44
2022-08-25T16:20:46.471Z,98448.44
2022-08-25T16:23:27.341Z,98448.22
2022-08-25T16:26:04.801Z,98455.56
2022-08-25T16:28:49.321Z,98443.31
2022-08-25T16:42:01.742Z,98439.41
2022-08-25T16:44:38.422Z,98438.00
2022-08-25T16:47:14.017Z,98435.16
2022-08-25T16:49:48.301Z,98432.97
2022-08-25T16:52:32.081Z,98427.06
2022-08-25T16:55:07.661Z,98428.78
2022-08-25T17:07:58.301Z,98430.81
2022-08-25T17:10:42.322Z,98439.69
2022-08-25T17:13:15.841Z,98442.69
2022-08-25T17:15:53.351Z,98449.91
2022-08-25T17:18:27.382Z,98451.06
2022-08-25T17:34:43.342Z,98449.19
2022-08-25T17:37:16.858Z,98453.19
2022-08-25T17:39:50.371Z,98458.44
2022-08-25T17:42:31.327Z,98454.88
2022-08-25T17:45:05.402Z,98445.19
2022-08-25T17:47:38.841Z,98448.13
2022-08-25T17:59:55.301Z,98449.75
2022-08-25T18:02:43.905Z,98457.09
2022-08-25T18:05:20.181Z,98453.28
2022-08-25T18:08:01.341Z,98454.13
2022-08-25T18:10:38.141Z,98447.59
2022-08-25T18:13:12.341Z,98453.69
2022-08-25T18:26:40.357Z,98450.66
2022-08-25T18:29:14.793Z,98451.69
2022-08-25T18:31:52.028Z,98453.78
2022-08-25T18:34:26.863Z,98452.94
2022-08-25T18:37:10.342Z,98455.88
2022-08-25T18:39:43.865Z,98458.56
2022-08-25T18:53:17.301Z,98464.59
2022-08-25T18:56:02.183Z,98461.59
2022-08-25T18:58:36.029Z,98467.47
2022-08-25T19:01:12.635Z,98462.63
2022-08-25T19:03:47.121Z,98463.63
2022-08-25T19:06:23.321Z,98464.00
2022-08-25T19:08:56.901Z,98458.94
2022-08-25T19:21:48.475Z,98455.53
2022-08-25T19:24:32.361Z,98456.56
2022-08-25T19:27:06.161Z,98462.22
2022-08-25T19:29:53.361Z,98463.47
2022-08-25T19:32:27.670Z,98463.84
2022-08-25T19:35:02.403Z,98455.66
2022-08-25T19:48:16.341Z,98445.13
2022-08-25T19:50:55.893Z,98435.66
2022-08-25T19:53:36.322Z,98452.41
2022-08-25T19:56:10.482Z,98446.94
2022-08-25T19:58:45.602Z,98454.50
2022-08-25T20:15:25.301Z,98446.00
2022-08-25T20:18:06.328Z,98449.59
2022-08-25T20:20:40.781Z,98455.22
2022-08-25T20:23:15.341Z,98456.09
2022-08-25T20:25:48.878Z,98454.38
2022-08-25T20:28:24.321Z,98451.66
2022-08-25T20:41:36.345Z,98456.25
2022-08-25T20:44:09.862Z,98451.88
2022-08-25T20:46:43.361Z,98456.47
2022-08-25T20:49:18.144Z,98461.72
2022-08-25T20:51:52.330Z,98459.84
2022-08-25T20:54:25.941Z,98467.00
2022-08-25T21:07:17.301Z,98463.56
2022-08-25T21:09:58.342Z,98460.19
2022-08-25T21:12:31.885Z,98458.47
2022-08-25T21:15:05.381Z,98456.16
2022-08-25T21:17:40.902Z,98458.03
2022-08-25T21:20:17.351Z,98453.78
2022-08-25T21:33:58.363Z,98445.31
2022-08-25T21:36:32.204Z,98440.91
2022-08-25T21:39:07.343Z,98445.69
2022-08-25T21:41:42.461Z,98439.59
2022-08-25T21:44:18.362Z,98446.94
2022-08-25T21:46:57.201Z,98444.41
2022-08-25T21:49:39.321Z,98441.03
2022-08-25T22:02:50.372Z,98437.13
2022-08-25T22:05:25.863Z,98427.25
2022-08-25T22:07:59.541Z,98426.59
2022-08-25T22:10:42.364Z,98428.69
2022-08-25T22:13:23.582Z,98424.50
2022-08-25T22:27:20.316Z,98413.91
2022-08-25T22:29:58.936Z,98405.09
2022-08-25T22:32:32.359Z,98403.41
2022-08-25T22:35:08.084Z,98406.31
2022-08-25T22:37:50.320Z,98410.94
2022-08-25T22:40:25.439Z,98396.66
2022-08-25T22:42:59.365Z,98397.69
2022-08-25T22:56:13.338Z,98393.00
2022-08-25T22:58:51.689Z,98392.31
2022-08-25T23:01:27.358Z,98393.56
2022-08-25T23:04:02.937Z,98387.66
2022-08-25T23:06:37.398Z,98386.00
2022-08-25T23:09:11.697Z,98382.59
2022-08-25T23:22:02.307Z,98378.59
2022-08-25T23:24:44.337Z,98373.31
2022-08-25T23:27:21.137Z,98369.97
2022-08-25T23:29:57.337Z,98377.28
2022-08-25T23:32:31.349Z,98378.31
2022-08-25T23:35:05.338Z,98365.75
2022-08-25T23:48:18.814Z,98363.59
2022-08-25T23:50:54.258Z,98364.84
2022-08-25T23:53:28.329Z,98360.41
2022-08-25T23:56:03.090Z,98356.00
2022-08-25T23:58:46.344Z,98352.63
